createdAt,value
2018-08-11T00:00:12.501Z,65.18
2018-08-11T00:02:40.528Z,67.24
2018-08-11T00:05:08.557Z,68.00
2018-08-11T00:07:36.866Z,68.54
2018-08-11T00:10:06.803Z,69.65
2018-08-11T00:12:35.068Z,69.61
2018-08-11T00:15:03.104Z,70.60
2018-08-11T00:17:31.156Z,70.37
2018-08-11T00:19:59.397Z,69.99
2018-08-11T00:22:27.425Z,70.73
2018-08-11T00:24:55.501Z,69.72
2018-08-11T00:27:27.265Z,70.16
2018-08-11T00:29:55.301Z,70.34
2018-08-11T00:32:23.355Z,70.73
2018-08-11T00:34:51.379Z,71.59
2018-08-11T00:37:19.426Z,70.92
2018-08-11T00:39:47.467Z,70.60
2018-08-11T00:42:15.486Z,70.73
2018-08-11T00:44:43.534Z,70.84
2018-08-11T00:47:11.549Z,71.68
2018-08-11T00:49:39.582Z,71.50
2018-08-11T00:52:07.602Z,71.89
2018-08-11T00:54:35.625Z,71.35
2018-08-11T00:57:03.887Z,71.48
2018-08-11T00:59:31.920Z,71.90
2018-08-11T01:01:59.953Z,70.81
2018-08-11T01:04:27.981Z,70.99
2018-08-11T01:06:56.036Z,71.39
2018-08-11T01:09:24.049Z,71.25
2018-08-11T01:11:52.232Z,70.79
2018-08-11T01:14:20.248Z,70.10
2018-08-11T01:16:48.281Z,70.80
2018-08-11T01:19:16.573Z,69.92
2018-08-11T01:21:44.597Z,70.63
2018-08-11T01:24:12.647Z,70.39
2018-08-11T01:26:40.824Z,70.29
2018-08-11T01:29:08.876Z,70.60
2018-08-11T01:31:36.898Z,71.06
2018-08-11T01:34:04.933Z,70.77
2018-08-11T01:36:32.950Z,71.08
2018-08-11T01:39:00.976Z,71.23
2018-08-11T01:41:29.032Z,71.04
2018-08-11T01:43:57.056Z,71.43
2018-08-11T01:46:25.091Z,71.04
2018-08-11T01:48:53.117Z,71.43
2018-08-11T01:51:21.152Z,71.14
2018-08-11T01:53:55.703Z,72.00
2018-08-11T01:56:23.804Z,71.06
2018-08-11T01:58:51.828Z,71.64
2018-08-11T02:01:19.880Z,71.71
2018-08-11T02:03:47.909Z,71.40
2018-08-11T02:06:15.945Z,71.04
2018-08-11T02:08:43.978Z,71.29
2018-08-11T02:11:12.061Z,71.10
2018-08-11T02:13:40.041Z,71.14
2018-08-11T02:16:08.063Z,70.99
2018-08-11T02:18:36.097Z,71.42
2018-08-11T02:21:04.782Z,71.34
2018-08-11T02:23:32.812Z,70.99
2018-08-11T02:26:01.009Z,71.34
2018-08-11T02:28:29.060Z,71.37
2018-08-11T02:30:57.086Z,71.17
2018-08-11T02:33:25.104Z,70.42
2018-08-11T02:35:53.121Z,71.39
2018-08-11T02:38:21.140Z,71.64
2018-08-11T02:40:49.158Z,71.53
2018-08-11T02:43:17.345Z,72.27
2018-08-11T02:45:45.368Z,72.24
2018-08-11T02:48:13.392Z,72.48
2018-08-11T02:50:41.431Z,72.69
2018-08-11T02:53:09.450Z,72.91
2018-08-11T02:55:37.497Z,73.32
2018-08-11T02:58:05.782Z,73.15
2018-08-11T03:00:33.817Z,73.36
2018-08-11T03:03:01.848Z,73.97
2018-08-11T03:05:29.879Z,74.03
2018-08-11T03:07:57.904Z,73.62
2018-08-11T03:10:26.064Z,74.43
2018-08-11T03:12:54.103Z,74.38
2018-08-11T03:15:22.129Z,74.28
2018-08-11T03:17:50.162Z,74.66
2018-08-11T03:20:18.340Z,74.64
2018-08-11T03:22:53.025Z,74.96
2018-08-11T03:25:21.050Z,74.73
2018-08-11T03:27:49.080Z,75.87
2018-08-11T03:30:17.084Z,75.05
2018-08-11T03:32:45.268Z,75.81
2018-08-11T03:35:13.285Z,75.98
2018-08-11T03:37:41.303Z,75.85
2018-08-11T03:40:10.365Z,76.53
2018-08-11T03:42:38.437Z,76.19
2018-08-11T03:45:06.582Z,75.77
2018-08-11T03:47:34.768Z,76.29
2018-08-11T03:50:02.785Z,76.29
2018-08-11T03:52:30.851Z,76.31
2018-08-11T03:54:58.829Z,76.42
2018-08-11T03:57:26.856Z,76.13
2018-08-11T03:59:54.880Z,76.26
2018-08-11T04:02:22.913Z,76.91
2018-08-11T04:04:50.945Z,76.72
2018-08-11T04:07:19.136Z,76.55
2018-08-11T04:09:47.161Z,76.37
2018-08-11T04:12:15.208Z,76.35
2018-08-11T04:14:43.235Z,76.83
2018-08-11T04:17:11.265Z,77.01
2018-08-11T04:19:39.326Z,76.83
2018-08-11T04:22:07.533Z,76.67
2018-08-11T04:24:35.573Z,77.19
2018-08-11T04:27:03.609Z,76.52
2018-08-11T04:29:31.657Z,76.53
2018-08-11T04:31:59.677Z,76.48
2018-08-11T04:34:27.707Z,76.58
2018-08-11T04:36:55.752Z,77.37
2018-08-11T04:39:23.804Z,76.66
2018-08-11T04:41:51.863Z,77.27
2018-08-11T04:44:19.859Z,77.29
2018-08-11T04:46:47.891Z,76.99
2018-08-11T04:49:15.924Z,76.80
2018-08-11T04:51:44.312Z,77.06
2018-08-11T04:54:12.370Z,76.76
2018-08-11T04:56:40.400Z,77.27
2018-08-11T04:59:08.416Z,77.08
2018-08-11T05:01:36.466Z,77.30
2018-08-11T05:04:04.589Z,76.83
2018-08-11T05:06:32.628Z,76.94
2018-08-11T05:09:00.686Z,77.30
2018-08-11T05:11:28.733Z,76.22
2018-08-11T05:13:56.753Z,76.27
2018-08-11T05:16:24.772Z,76.13
2018-08-11T05:18:52.799Z,76.43
2018-08-11T05:21:20.823Z,76.60
2018-08-11T05:23:48.851Z,76.47
2018-08-11T05:26:17.075Z,76.48
2018-08-11T05:28:45.092Z,76.50
2018-08-11T05:31:13.158Z,76.54
2018-08-11T05:33:41.194Z,76.55
2018-08-11T05:36:09.232Z,76.50
2018-08-11T05:38:37.301Z,76.66
2018-08-11T05:41:05.357Z,76.29
2018-08-11T05:43:33.403Z,76.53
2018-08-11T05:46:01.443Z,77.03
2018-08-11T05:48:29.507Z,76.51
2018-08-11T05:50:57.531Z,76.40
2018-08-11T05:53:25.567Z,76.44
2018-08-11T05:55:53.632Z,76.45
2018-08-11T05:58:21.670Z,76.23
2018-08-11T06:00:49.704Z,76.94
2018-08-11T06:03:17.788Z,76.40
2018-08-11T06:05:45.820Z,76.80
2018-08-11T06:08:13.844Z,76.41
2018-08-11T06:10:41.866Z,76.85
2018-08-11T06:13:09.885Z,76.15
2018-08-11T06:15:37.949Z,76.07
2018-08-11T06:18:06.131Z,76.27
2018-08-11T06:20:34.187Z,76.03
2018-08-11T06:23:02.211Z,75.13
2018-08-11T06:25:30.498Z,75.02
2018-08-11T06:27:58.518Z,74.46
2018-08-11T06:30:26.557Z,75.39
2018-08-11T06:32:54.581Z,73.92
2018-08-11T06:35:22.621Z,73.99
2018-08-11T06:37:50.669Z,73.79
2018-08-11T06:40:18.712Z,73.50
2018-08-11T06:42:46.742Z,72.89
2018-08-11T06:45:14.926Z,72.14
2018-08-11T06:47:42.950Z,72.63
2018-08-11T06:50:10.992Z,71.72
2018-08-11T06:52:39.024Z,71.16
2018-08-11T06:55:07.188Z,70.98
2018-08-11T06:57:35.231Z,71.06
2018-08-11T07:00:03.404Z,70.17
2018-08-11T07:02:31.445Z,68.18
2018-08-11T07:04:59.474Z,69.30
2018-08-11T07:07:27.501Z,67.31
2018-08-11T07:09:55.534Z,67.63
2018-08-11T07:12:23.559Z,67.21
2018-08-11T07:14:51.577Z,65.25
2018-08-11T07:17:19.852Z,65.78
2018-08-11T07:19:48.517Z,65.07
2018-08-11T07:22:16.705Z,65.16
2018-08-11T07:24:44.750Z,65.10
2018-08-11T07:27:12.865Z,63.76
2018-08-11T07:29:41.022Z,63.48
2018-08-11T07:32:09.061Z,62.60
2018-08-11T07:34:37.096Z,62.45
2018-08-11T07:37:05.384Z,61.44
2018-08-11T07:39:33.410Z,62.03
2018-08-11T07:42:01.439Z,62.47
2018-08-11T07:44:29.748Z,61.44
2018-08-11T07:46:57.772Z,60.44
2018-08-11T07:49:26.113Z,60.62
2018-08-11T07:51:54.148Z,59.06
2018-08-11T07:54:22.212Z,58.66
2018-08-11T07:56:50.248Z,58.93
2018-08-11T07:59:18.401Z,58.64
2018-08-11T08:01:46.417Z,58.04
2018-08-11T08:04:14.455Z,58.59
2018-08-11T08:06:42.485Z,55.11
2018-08-11T08:09:12.412Z,56.16
2018-08-11T08:11:41.101Z,54.55
2018-08-11T08:14:09.377Z,54.37
2018-08-11T08:16:37.384Z,52.85
2018-08-11T08:19:05.613Z,53.01
2018-08-11T08:21:33.787Z,51.83
2018-08-11T08:24:01.821Z,53.85
2018-08-11T08:26:29.974Z,52.32
2018-08-11T08:28:57.882Z,52.66
2018-08-11T08:31:26.105Z,51.95
2018-08-11T08:33:54.140Z,50.84
2018-08-11T08:36:22.168Z,51.22
2018-08-11T08:38:50.188Z,51.24
2018-08-11T08:41:18.677Z,51.13
2018-08-11T08:43:46.701Z,51.56
2018-08-11T08:46:14.836Z,51.49
2018-08-11T08:48:42.872Z,49.63
2018-08-11T08:51:10.976Z,50.08
2018-08-11T08:53:39.004Z,49.80
2018-08-11T08:56:07.124Z,50.74
2018-08-11T08:58:35.139Z,51.05
2018-08-11T09:01:03.148Z,49.49
2018-08-11T09:03:31.175Z,47.36
2018-08-11T09:05:59.200Z,48.52
2018-08-11T09:08:27.240Z,48.01
2018-08-11T09:10:55.265Z,46.46
2018-08-11T09:13:23.307Z,47.07
2018-08-11T09:15:51.353Z,46.09
2018-08-11T09:18:19.745Z,45.91
2018-08-11T09:20:47.776Z,46.06
2018-08-11T09:23:15.788Z,46.13
2018-08-11T09:25:43.797Z,44.63
2018-08-11T09:28:11.817Z,44.47
2018-08-11T09:30:41.016Z,44.11
2018-08-11T09:33:09.041Z,44.57
2018-08-11T09:35:37.069Z,45.40
2018-08-11T09:38:05.536Z,45.93
2018-08-11T09:40:33.614Z,43.51
2018-08-11T09:43:01.642Z,42.79
2018-08-11T09:45:29.976Z,43.66
2018-08-11T09:47:58.138Z,42.79
2018-08-11T09:50:26.141Z,43.82
2018-08-11T09:52:54.581Z,45.00
2018-08-11T09:55:22.633Z,45.42
2018-08-11T09:57:50.649Z,46.24
2018-08-11T10:00:23.970Z,45.58
2018-08-11T10:02:52.753Z,45.95
2018-08-11T10:05:21.028Z,44.20
2018-08-11T10:07:49.083Z,45.36
2018-08-11T10:10:17.121Z,44.52
2018-08-11T10:12:45.604Z,46.13
2018-08-11T10:15:13.618Z,44.79
2018-08-11T10:17:41.637Z,43.70
2018-08-11T10:20:09.896Z,43.42
2018-08-11T10:22:37.940Z,41.40
2018-08-11T10:25:05.988Z,40.91
2018-08-11T10:27:34.048Z,41.23
2018-08-11T10:30:02.076Z,40.94
2018-08-11T10:32:30.114Z,42.19
2018-08-11T10:34:58.548Z,40.89
2018-08-11T10:37:26.622Z,41.21
2018-08-11T10:39:54.679Z,40.69
2018-08-11T10:42:22.769Z,40.69
2018-08-11T10:44:50.860Z,40.78
2018-08-11T10:47:18.884Z,39.70
2018-08-11T10:49:46.904Z,40.37
2018-08-11T10:52:15.353Z,40.45
2018-08-11T10:54:43.369Z,40.92
2018-08-11T10:57:11.389Z,41.67
2018-08-11T10:59:39.413Z,39.78
2018-08-11T11:02:07.447Z,39.09
2018-08-11T11:04:35.722Z,37.99
2018-08-11T11:07:05.009Z,37.45
2018-08-11T11:09:39.733Z,38.06
2018-08-11T11:12:14.452Z,38.10
2018-08-11T11:14:42.466Z,36.57
2018-08-11T11:17:10.488Z,37.03
2018-08-11T11:19:38.522Z,36.59
2018-08-11T11:22:06.863Z,35.99
2018-08-11T11:24:35.042Z,36.60
2018-08-11T11:27:03.064Z,36.51
2018-08-11T11:29:31.101Z,36.72
2018-08-11T11:31:59.135Z,37.14
2018-08-11T11:34:27.149Z,38.35
2018-08-11T11:36:55.212Z,38.89
2018-08-11T11:39:23.230Z,39.26
2018-08-11T11:41:51.249Z,40.58
2018-08-11T11:44:19.593Z,39.46
2018-08-11T11:46:47.609Z,39.31
2018-08-11T11:49:15.644Z,39.44
2018-08-11T11:51:43.658Z,37.92
2018-08-11T11:54:11.678Z,38.62
2018-08-11T11:56:39.717Z,38.84
2018-08-11T11:59:09.024Z,39.17
2018-08-11T12:01:37.057Z,39.93
2018-08-11T12:04:05.072Z,39.84
2018-08-11T12:06:33.180Z,40.04
2018-08-11T12:09:01.508Z,39.08
2018-08-11T12:11:29.617Z,39.09
2018-08-11T12:13:57.976Z,40.49
2018-08-11T12:16:25.989Z,39.34
2018-08-11T12:18:54.309Z,39.14
2018-08-11T12:21:22.361Z,39.91
2018-08-11T12:23:50.380Z,39.45
2018-08-11T12:26:18.400Z,38.84
2018-08-11T12:28:46.444Z,38.29
2018-08-11T12:31:14.527Z,38.06
2018-08-11T12:33:42.857Z,38.86
2018-08-11T12:36:10.876Z,37.24
2018-08-11T12:38:38.899Z,37.63
2018-08-11T12:41:06.948Z,37.91
2018-08-11T12:43:34.973Z,37.48
2018-08-11T12:46:02.981Z,38.35
2018-08-11T12:48:31.280Z,38.02
2018-08-11T12:50:59.313Z,38.17
2018-08-11T12:53:27.485Z,37.69
2018-08-11T12:55:55.469Z,36.40
2018-08-11T12:58:23.493Z,35.96
2018-08-11T13:00:51.531Z,35.28
2018-08-11T13:03:19.555Z,36.19
2018-08-11T13:05:47.594Z,35.95
2018-08-11T13:08:15.634Z,35.46
2018-08-11T13:10:43.665Z,35.74
2018-08-11T13:13:11.701Z,35.88
2018-08-11T13:15:39.940Z,35.70
2018-08-11T13:18:07.953Z,35.66
2018-08-11T13:20:36.234Z,35.19
2018-08-11T13:23:04.909Z,37.60
2018-08-11T13:25:32.945Z,36.07
2018-08-11T13:28:00.984Z,37.53
2018-08-11T13:30:29.033Z,36.46
2018-08-11T13:32:57.188Z,36.06
2018-08-11T13:35:25.233Z,35.25
2018-08-11T13:37:53.323Z,35.74
2018-08-11T13:40:21.353Z,35.89
2018-08-11T13:42:49.377Z,35.25
2018-08-11T13:45:17.564Z,34.04
2018-08-11T13:47:45.793Z,35.23
2018-08-11T13:50:13.801Z,33.84
2018-08-11T13:52:41.862Z,33.61
2018-08-11T13:55:10.127Z,34.39
2018-08-11T13:57:38.181Z,32.95
2018-08-11T14:00:07.380Z,34.01
2018-08-11T14:02:35.422Z,33.80
2018-08-11T14:05:03.655Z,33.82
2018-08-11T14:07:31.727Z,34.71
2018-08-11T14:09:59.702Z,34.89
2018-08-11T14:12:28.044Z,34.52
2018-08-11T14:14:56.284Z,34.29
2018-08-11T14:17:24.257Z,33.81
2018-08-11T14:19:52.271Z,34.99
2018-08-11T14:22:20.308Z,34.41
2018-08-11T14:24:48.340Z,33.90
2018-08-11T14:27:16.368Z,33.75
2018-08-11T14:32:37.125Z,34.40
2018-08-11T14:35:05.365Z,33.12
2018-08-11T14:37:43.472Z,32.86
2018-08-11T14:40:11.508Z,33.26
2018-08-11T14:42:39.577Z,33.08
2018-08-11T14:45:09.069Z,32.59
2018-08-11T14:47:37.100Z,33.68
2018-08-11T14:50:05.703Z,33.30
2018-08-11T14:52:33.726Z,34.20
2018-08-11T14:55:01.753Z,32.84
2018-08-11T14:57:29.781Z,32.50
2018-08-11T14:59:57.817Z,33.03
2018-08-11T15:02:25.850Z,33.85
2018-08-11T15:04:53.876Z,33.73
2018-08-11T15:07:21.903Z,33.55
2018-08-11T15:09:50.016Z,33.80
2018-08-11T15:12:24.265Z,34.19
2018-08-11T15:14:56.930Z,34.88
2018-08-11T15:17:25.273Z,33.77
2018-08-11T15:19:53.293Z,34.57
2018-08-11T15:25:14.337Z,33.37
2018-08-11T15:27:42.516Z,35.34
2018-08-11T15:30:11.794Z,35.51
2018-08-11T15:32:40.825Z,35.14
2018-08-11T15:35:09.547Z,36.09
2018-08-11T15:37:37.592Z,35.85
2018-08-11T15:51:49.725Z,35.93
2018-08-11T15:54:17.855Z,35.79
2018-08-11T15:56:45.768Z,36.65
2018-08-11T15:59:13.796Z,36.07
2018-08-11T16:01:41.821Z,36.38
2018-08-11T16:04:09.854Z,36.07
2018-08-11T16:06:37.899Z,36.47
2018-08-11T16:09:08.200Z,36.14
2018-08-11T16:11:36.401Z,36.85
2018-08-11T16:14:05.732Z,37.21
2018-08-11T16:16:33.746Z,37.23
2018-08-11T16:19:01.917Z,36.65
2018-08-11T16:21:29.954Z,37.16
2018-08-11T16:23:58.790Z,36.47
2018-08-11T16:26:26.821Z,37.27
2018-08-11T16:28:54.851Z,35.97
2018-08-11T16:31:23.069Z,36.18
2018-08-11T16:33:51.089Z,36.29
2018-08-11T16:36:19.108Z,36.01
2018-08-11T16:38:47.144Z,36.15
2018-08-11T16:41:15.173Z,37.61
2018-08-11T16:43:43.349Z,36.95
2018-08-11T16:46:11.374Z,37.72
2018-08-11T16:48:39.397Z,38.34
2018-08-11T16:51:07.438Z,37.42
2018-08-11T16:53:35.475Z,36.92
2018-08-11T16:56:03.858Z,37.19
2018-08-11T16:58:31.938Z,37.57
2018-08-11T17:01:00.007Z,37.21
2018-08-11T17:03:28.184Z,37.86
2018-08-11T17:05:56.276Z,37.87
2018-08-11T17:08:24.233Z,38.40
2018-08-11T17:10:52.281Z,38.41
2018-08-11T17:13:20.380Z,38.04
2018-08-11T17:15:48.409Z,38.68
2018-08-11T17:18:16.445Z,38.14
2018-08-11T17:20:44.922Z,37.92
2018-08-11T17:23:12.957Z,38.15
2018-08-11T17:25:40.987Z,37.39
2018-08-11T17:28:09.235Z,37.67
2018-08-11T17:30:44.237Z,37.52
2018-08-11T17:33:12.261Z,37.68
2018-08-11T17:35:40.293Z,37.45
2018-08-11T17:38:08.337Z,37.05
2018-08-11T17:40:36.389Z,37.57
2018-08-11T17:43:04.770Z,37.99
2018-08-11T17:45:32.814Z,37.69
2018-08-11T17:48:00.859Z,37.14
2018-08-11T17:50:29.114Z,38.11
2018-08-11T17:52:57.129Z,38.73
2018-08-11T17:55:25.251Z,37.87
2018-08-11T17:57:53.481Z,38.96
2018-08-11T18:00:21.663Z,38.65
2018-08-11T18:02:49.737Z,38.15
2018-08-11T18:05:17.757Z,38.38
2018-08-11T18:07:45.944Z,38.95
2018-08-11T18:10:13.998Z,38.49
2018-08-11T18:12:42.072Z,38.74
2018-08-11T18:15:10.104Z,39.32
2018-08-11T18:17:38.148Z,39.10
2018-08-11T18:20:06.200Z,39.10
2018-08-11T18:22:34.252Z,39.03
2018-08-11T18:25:02.444Z,39.69
2018-08-11T18:27:30.510Z,39.32
2018-08-11T18:29:58.529Z,39.49
2018-08-11T18:32:26.721Z,40.35
2018-08-11T18:34:54.758Z,40.41
2018-08-11T18:37:22.785Z,39.84
2018-08-11T18:39:50.809Z,40.49
2018-08-11T18:42:19.001Z,40.20
2018-08-11T18:44:47.028Z,40.20
2018-08-11T18:47:15.063Z,40.63
2018-08-11T18:49:43.100Z,41.39
2018-08-11T18:52:11.866Z,41.55
2018-08-11T18:54:39.866Z,41.04
2018-08-11T18:57:07.930Z,41.89
2018-08-11T18:59:35.945Z,41.40
2018-08-11T19:02:04.941Z,41.92
2018-08-11T19:04:33.112Z,41.69
2018-08-11T19:07:01.134Z,42.79
2018-08-11T19:09:29.164Z,41.96
2018-08-11T19:11:57.210Z,42.59
2018-08-11T19:14:25.391Z,42.63
2018-08-11T19:16:53.413Z,43.13
2018-08-11T19:19:21.433Z,42.75
2018-08-11T19:21:49.464Z,43.61
2018-08-11T19:24:17.489Z,44.14
2018-08-11T19:26:45.733Z,43.41
2018-08-11T19:29:13.773Z,44.68
2018-08-11T19:31:41.837Z,45.13
2018-08-11T19:34:10.042Z,44.99
2018-08-11T19:36:38.320Z,44.86
2018-08-11T19:39:08.117Z,45.60
2018-08-11T19:41:36.171Z,44.90
2018-08-11T19:44:04.520Z,45.69
2018-08-11T19:46:32.770Z,45.85
2018-08-11T19:49:00.761Z,46.47
2018-08-11T19:51:29.073Z,46.23
2018-08-11T19:53:57.096Z,46.94
2018-08-11T19:56:25.305Z,47.06
2018-08-11T19:58:53.368Z,47.18
2018-08-11T20:01:21.684Z,47.51
2018-08-11T20:03:49.854Z,47.16
2018-08-11T20:06:17.855Z,47.46
2018-08-11T20:08:46.041Z,47.87
2018-08-11T20:11:14.370Z,48.53
2018-08-11T20:13:42.461Z,48.98
2018-08-11T20:16:10.499Z,49.51
2018-08-11T20:18:38.546Z,49.62
2018-08-11T20:21:06.953Z,49.52
2018-08-11T20:23:34.989Z,49.70
2018-08-11T20:26:03.180Z,50.07
2018-08-11T20:28:31.330Z,50.62
2018-08-11T20:30:59.368Z,50.73
2018-08-11T20:33:27.419Z,51.06
2018-08-11T20:35:55.437Z,50.61
2018-08-11T20:38:23.765Z,50.89
2018-08-11T20:40:51.817Z,51.19
2018-08-11T20:43:19.926Z,51.83
2018-08-11T20:45:48.064Z,51.97
2018-08-11T20:48:16.094Z,52.28
2018-08-11T20:50:44.121Z,52.74
2018-08-11T20:53:12.214Z,52.68
2018-08-11T20:55:40.818Z,52.23
2018-08-11T20:58:08.957Z,52.29
2018-08-11T21:00:37.119Z,52.43
2018-08-11T21:03:07.268Z,53.31
2018-08-11T21:05:35.316Z,53.62
2018-08-11T21:08:03.404Z,53.55
2018-08-11T21:10:31.450Z,53.96
2018-08-11T21:12:59.489Z,53.65
2018-08-11T21:15:27.629Z,54.05
2018-08-11T21:17:55.574Z,54.22
2018-08-11T21:20:23.600Z,54.52
2018-08-11T21:22:51.630Z,55.25
2018-08-11T21:25:20.023Z,54.93
2018-08-11T21:27:48.065Z,55.33
2018-08-11T21:30:16.124Z,55.85
2018-08-11T21:32:44.164Z,55.20
2018-08-11T21:35:12.212Z,56.09
2018-08-11T21:37:40.263Z,56.04
2018-08-11T21:40:10.854Z,56.29
2018-08-11T21:42:39.156Z,56.20
2018-08-11T21:45:07.437Z,56.29
2018-08-11T21:47:35.482Z,55.93
2018-08-11T21:50:03.562Z,56.54
2018-08-11T21:52:31.672Z,57.10
2018-08-11T21:54:59.801Z,56.82
2018-08-11T21:57:27.898Z,57.19
2018-08-11T21:59:56.125Z,57.40
2018-08-11T22:02:24.337Z,57.83
2018-08-11T22:04:52.408Z,57.60
2018-08-11T22:07:20.800Z,57.28
2018-08-11T22:09:48.813Z,57.31
2018-08-11T22:12:16.849Z,57.33
2018-08-11T22:14:44.901Z,58.03
2018-08-11T22:17:12.932Z,57.89
2018-08-11T22:19:41.184Z,57.74
2018-08-11T22:22:09.215Z,58.14
2018-08-11T22:24:37.317Z,58.56
2018-08-11T22:27:05.692Z,57.75
2018-08-11T22:29:33.757Z,58.46
2018-08-11T22:32:01.802Z,58.03
2018-08-11T22:34:29.826Z,58.22
2018-08-11T22:36:58.152Z,58.94
2018-08-11T22:39:26.186Z,59.38
2018-08-11T22:41:54.212Z,59.14
2018-08-11T22:44:22.251Z,59.57
2018-08-11T22:46:50.539Z,59.59
2018-08-11T22:49:18.572Z,59.28
2018-08-11T22:51:46.601Z,58.89
2018-08-11T22:54:14.648Z,58.67
2018-08-11T22:56:42.657Z,59.27
2018-08-11T22:59:10.671Z,59.03
2018-08-11T23:01:38.733Z,59.02
2018-08-11T23:04:06.773Z,59.17
2018-08-11T23:06:34.801Z,59.85
2018-08-11T23:09:02.883Z,59.59
2018-08-11T23:11:30.973Z,59.58
2018-08-11T23:13:59.025Z,59.69
2018-08-11T23:16:27.065Z,59.69
2018-08-11T23:18:55.093Z,60.11
2018-08-11T23:21:23.128Z,59.57
2018-08-11T23:23:51.304Z,59.79
2018-08-11T23:26:19.317Z,59.68
2018-08-11T23:28:47.336Z,59.69
2018-08-11T23:31:15.376Z,59.65
2018-08-11T23:33:43.396Z,59.49
2018-08-11T23:36:11.420Z,60.29
2018-08-11T23:38:39.469Z,59.83
2018-08-11T23:41:07.528Z,59.73
2018-08-11T23:43:35.567Z,59.22
2018-08-11T23:46:03.593Z,59.55
2018-08-11T23:48:31.623Z,59.91
2018-08-11T23:50:59.640Z,60.18
2018-08-11T23:53:27.665Z,60.38
2018-08-11T23:55:55.706Z,59.85
2018-08-11T23:58:23.754Z,59.92
